Time;durP1;ratioP1;P1;durP2;ratioP2;P2;SDS_P1;SDS_P2;PMS_P1;PMS_P2;Temp;Humidity;BMP_temperature;BMP_pressure;BME280_temperature;BME280_humidity;BME280_pressure;Samples;Min_cycle;Max_cycle;Signal;HPM_P1;HPM_P2
2023/07/23 00:00:24;;;;;;;5.77;4.00;;;18.20;99.90;;;;;;5067096;28;20415;-73
2023/07/23 00:02:50;;;;;;;6.00;4.27;;;18.10;99.90;;;;;;5066278;28;20426;-73
2023/07/23 00:05:16;;;;;;;4.50;4.10;;;18.00;99.90;;;;;;5061329;28;20415;-73
2023/07/23 00:07:42;;;;;;;5.50;4.30;;;17.90;99.90;;;;;;5063394;28;20447;-73
2023/07/23 00:10:09;;;;;;;7.60;3.93;;;17.90;99.90;;;;;;5063412;28;20182;-73
2023/07/23 00:12:35;;;;;;;3.63;3.33;;;18.00;99.90;;;;;;5060366;28;20181;-73
2023/07/23 00:15:02;;;;;;;3.80;3.40;;;18.00;99.90;;;;;;5061054;28;20992;-73
2023/07/23 00:17:28;;;;;;;4.53;3.60;;;17.90;99.90;;;;;;5059347;28;20489;-73
2023/07/23 00:19:53;;;;;;;4.93;4.43;;;17.90;99.90;;;;;;5062405;28;20812;-73
2023/07/23 00:22:19;;;;;;;4.73;4.00;;;17.90;99.90;;;;;;5061046;28;21408;-73
2023/07/23 00:24:45;;;;;;;5.17;4.00;;;17.80;99.90;;;;;;5063389;28;20174;-73
2023/07/23 00:27:13;;;;;;;4.90;4.07;;;17.80;99.90;;;;;;5067406;28;20813;-73
2023/07/23 00:29:40;;;;;;;5.00;3.97;;;17.70;99.90;;;;;;5066000;28;20419;-73
2023/07/23 00:32:06;;;;;;;4.40;3.63;;;17.70;99.90;;;;;;5070113;28;20824;-73
2023/07/23 00:34:32;;;;;;;6.43;4.30;;;17.60;99.90;;;;;;5064472;28;20415;-73
2023/07/23 00:36:58;;;;;;;4.20;3.80;;;17.70;99.90;;;;;;5066832;28;20446;-73
2023/07/23 00:39:23;;;;;;;3.97;3.57;;;17.60;99.90;;;;;;5062139;28;20430;-73
2023/07/23 00:41:49;;;;;;;5.40;3.80;;;17.60;99.90;;;;;;5065742;28;20188;-73
2023/07/23 00:44:16;;;;;;;4.73;4.20;;;17.60;99.90;;;;;;5059338;28;20188;-73
2023/07/23 00:46:42;;;;;;;4.23;3.83;;;17.40;99.90;;;;;;5064022;28;20232;-73
2023/07/23 00:49:09;;;;;;;4.93;3.80;;;17.40;99.90;;;;;;5065830;28;20404;-73
2023/07/23 00:51:35;;;;;;;5.10;3.77;;;17.40;99.90;;;;;;5062086;28;20422;-73
2023/07/23 00:54:03;;;;;;;5.17;3.87;;;17.30;99.90;;;;;;5062955;28;20917;-73
2023/07/23 00:56:29;;;;;;;5.63;4.17;;;17.30;99.90;;;;;;5061528;28;20446;-73
2023/07/23 00:58:55;;;;;;;5.80;4.00;;;17.30;99.90;;;;;;5061858;28;20499;-73
2023/07/23 01:01:21;;;;;;;4.63;3.93;;;17.30;99.90;;;;;;5068451;28;20418;-72
2023/07/23 01:03:47;;;;;;;4.70;4.30;;;17.30;99.90;;;;;;5059336;28;20440;-73
2023/07/23 01:06:14;;;;;;;6.40;4.80;;;17.30;99.90;;;;;;5065854;28;20228;-73
2023/07/23 01:08:43;;;;;;;4.83;4.00;;;17.40;99.90;;;;;;5063042;28;20230;-73
2023/07/23 01:11:09;;;;;;;4.97;4.10;;;17.40;99.90;;;;;;5066538;28;20411;-73
2023/07/23 01:13:39;;;;;;;4.53;4.10;;;17.40;99.90;;;;;;5061474;28;20411;-73
2023/07/23 01:16:07;;;;;;;5.00;4.30;;;17.30;99.90;;;;;;5055725;28;20423;-73
2023/07/23 01:18:40;;;;;;;8.40;4.60;;;17.40;99.90;;;;;;5049662;28;20408;-73
2023/07/23 01:21:06;;;;;;;4.97;3.80;;;17.40;99.90;;;;;;5050069;28;20435;-72
2023/07/23 01:23:32;;;;;;;4.63;4.07;;;17.40;99.90;;;;;;5049300;28;20409;-73
2023/07/23 01:25:58;;;;;;;5.10;4.43;;;17.40;99.90;;;;;;5049394;28;20459;-74
2023/07/23 01:28:24;;;;;;;5.77;3.73;;;17.40;99.90;;;;;;5048385;28;20170;-73
2023/07/23 01:30:52;;;;;;;5.90;4.40;;;17.40;99.90;;;;;;5067666;28;20503;-74
2023/07/23 01:33:18;;;;;;;4.07;3.67;;;17.40;99.90;;;;;;5069274;28;20403;-73
2023/07/23 01:35:45;;;;;;;6.80;4.07;;;17.40;99.90;;;;;;5067928;28;20931;-74
2023/07/23 01:38:12;;;;;;;6.40;4.30;;;17.40;99.90;;;;;;5067668;28;20469;-74
2023/07/23 01:40:40;;;;;;;5.40;4.90;;;17.40;99.90;;;;;;5069094;28;21219;-73
2023/07/23 01:43:06;;;;;;;4.93;4.40;;;17.30;99.90;;;;;;5067710;28;20415;-73
2023/07/23 01:45:32;;;;;;;5.00;4.50;;;17.40;99.90;;;;;;5068836;28;20451;-73
2023/07/23 01:47:58;;;;;;;4.57;3.97;;;17.40;99.90;;;;;;5067565;28;20441;-73
2023/07/23 01:50:24;;;;;;;5.33;4.30;;;17.40;99.90;;;;;;5067717;28;20203;-73
2023/07/23 01:52:50;;;;;;;5.67;4.70;;;17.40;99.90;;;;;;5067577;28;20192;-73
2023/07/23 01:55:16;;;;;;;4.60;3.87;;;17.40;99.90;;;;;;5068993;28;20165;-73
2023/07/23 01:57:41;;;;;;;5.13;4.27;;;17.40;99.90;;;;;;5069073;28;20419;-73
2023/07/23 02:00:08;;;;;;;4.30;3.57;;;17.40;99.90;;;;;;5067523;28;20177;-73
2023/07/23 02:02:34;;;;;;;5.90;4.50;;;17.40;99.90;;;;;;5068902;28;20181;-73
2023/07/23 02:05:00;;;;;;;6.13;4.67;;;17.40;99.90;;;;;;5066681;28;20485;-73
2023/07/23 02:07:25;;;;;;;5.03;4.50;;;17.30;99.90;;;;;;5068837;28;20498;-73
2023/07/23 02:09:51;;;;;;;5.00;4.50;;;17.30;99.90;;;;;;5068763;28;20161;-73
2023/07/23 02:12:17;;;;;;;5.00;4.50;;;17.30;99.90;;;;;;5068530;28;20251;-73
2023/07/23 02:14:43;;;;;;;4.40;4.03;;;17.30;99.90;;;;;;5068468;28;20177;-73
2023/07/23 02:17:09;;;;;;;6.47;4.73;;;17.40;99.90;;;;;;5068600;28;20326;-74
2023/07/23 02:19:36;;;;;;;5.30;4.47;;;17.40;99.90;;;;;;5068958;28;20428;-73
2023/07/23 02:22:03;;;;;;;6.80;4.20;;;17.40;99.90;;;;;;5068455;28;20185;-73
2023/07/23 02:24:28;;;;;;;8.43;4.37;;;17.50;99.90;;;;;;5068653;28;20420;-73
2023/07/23 02:26:54;;;;;;;4.60;4.10;;;17.50;99.90;;;;;;5068299;28;20530;-73
2023/07/23 02:29:20;;;;;;;5.47;4.97;;;17.60;99.90;;;;;;5067273;28;20234;-73
2023/07/23 02:31:45;;;;;;;5.23;4.33;;;17.60;99.90;;;;;;5068770;28;20638;-73
2023/07/23 02:34:11;;;;;;;6.37;4.50;;;17.70;99.90;;;;;;5068058;28;20567;-73
2023/07/23 02:36:37;;;;;;;5.90;4.20;;;17.70;99.90;;;;;;5065156;28;20283;-73
2023/07/23 02:39:03;;;;;;;5.47;4.13;;;17.60;99.90;;;;;;5068185;28;20201;-73
2023/07/23 02:41:29;;;;;;;4.67;4.27;;;17.70;99.90;;;;;;5069021;28;20443;-73
2023/07/23 02:43:54;;;;;;;5.40;4.40;;;17.70;99.90;;;;;;5065631;28;20181;-73
2023/07/23 02:46:20;;;;;;;5.60;5.03;;;17.70;99.90;;;;;;5067570;28;20201;-73
2023/07/23 02:48:46;;;;;;;7.47;4.60;;;17.80;99.90;;;;;;5068454;28;20654;-74
2023/07/23 02:51:11;;;;;;;7.30;5.17;;;17.70;99.90;;;;;;5068108;28;20217;-73
2023/07/23 02:53:37;;;;;;;6.70;4.50;;;17.80;99.90;;;;;;5067742;28;20173;-73
2023/07/23 02:56:03;;;;;;;5.93;4.37;;;17.70;99.90;;;;;;5067003;28;20177;-74
2023/07/23 02:58:28;;;;;;;5.43;4.77;;;17.80;99.90;;;;;;5068067;28;20184;-73
2023/07/23 03:00:57;;;;;;;5.10;4.60;;;17.80;99.90;;;;;;5068214;28;20228;-73
2023/07/23 03:03:23;;;;;;;6.47;4.70;;;17.90;99.90;;;;;;5067216;28;20189;-73
2023/07/23 03:05:50;;;;;;;6.37;4.83;;;17.90;99.90;;;;;;5067736;28;20455;-72
2023/07/23 03:08:15;;;;;;;4.90;4.40;;;18.00;99.90;;;;;;5067980;28;20407;-73
2023/07/23 03:10:42;;;;;;;6.30;5.30;;;18.00;99.90;;;;;;5067900;28;20768;-73
2023/07/23 03:13:08;;;;;;;6.83;4.80;;;18.00;99.90;;;;;;5067729;28;20169;-73
2023/07/23 03:15:37;;;;;;;4.60;4.13;;;18.00;99.90;;;;;;5067475;28;20481;-73
2023/07/23 03:18:03;;;;;;;5.90;4.70;;;18.00;99.90;;;;;;5067945;28;20833;-73
2023/07/23 03:20:29;;;;;;;5.37;4.87;;;18.00;99.90;;;;;;5066119;28;20422;-73
2023/07/23 03:22:55;;;;;;;5.63;4.80;;;18.00;99.90;;;;;;5066091;28;20415;-73
2023/07/23 03:25:20;;;;;;;8.00;5.37;;;18.00;99.90;;;;;;5065972;28;20181;-73
2023/07/23 03:27:46;;;;;;;6.73;5.50;;;18.00;99.90;;;;;;5067919;28;20181;-73
2023/07/23 03:30:12;;;;;;;5.97;4.90;;;18.00;99.90;;;;;;5065709;28;20523;-73
2023/07/23 03:32:38;;;;;;;5.17;4.67;;;18.00;99.90;;;;;;5067043;28;20165;-74
2023/07/23 03:35:05;;;;;;;6.53;5.00;;;18.00;99.90;;;;;;5067520;28;20236;-73
2023/07/23 03:37:30;;;;;;;6.37;4.83;;;18.10;99.90;;;;;;5067607;28;20435;-73
2023/07/23 03:39:56;;;;;;;5.73;5.20;;;18.10;99.90;;;;;;5067383;28;20422;-73
2023/07/23 03:42:24;;;;;;;5.57;4.60;;;18.10;99.90;;;;;;5065911;28;20177;-73
2023/07/23 03:44:50;;;;;;;8.37;4.80;;;18.10;99.90;;;;;;5067021;28;20250;-73
2023/07/23 03:47:17;;;;;;;5.40;4.90;;;18.10;99.90;;;;;;5067098;28;20983;-73
2023/07/23 03:49:44;;;;;;;5.80;5.20;;;18.10;99.90;;;;;;5067475;28;20187;-73
2023/07/23 03:52:10;;;;;;;5.17;4.67;;;18.20;99.90;;;;;;5067746;28;20399;-73
2023/07/23 03:54:36;;;;;;;5.40;4.90;;;18.20;99.90;;;;;;5068971;28;20417;-73
2023/07/23 03:57:02;;;;;;;6.47;5.50;;;18.10;99.90;;;;;;5071081;28;20555;-73
2023/07/23 03:59:36;;;;;;;8.90;4.50;;;18.20;99.90;;;;;;5071485;28;20419;-71
2023/07/23 04:02:01;;;;;;;5.60;4.97;;;18.20;99.90;;;;;;5069922;28;20769;-72
2023/07/23 04:04:27;;;;;;;4.47;4.07;;;18.10;99.90;;;;;;5071551;28;20435;-72
2023/07/23 04:06:53;;;;;;;4.90;4.40;;;18.10;99.90;;;;;;5071028;28;20213;-72
2023/07/23 04:09:20;;;;;;;7.00;4.70;;;18.20;99.90;;;;;;5071199;28;20813;-72
2023/07/23 04:11:46;;;;;;;6.97;4.77;;;18.20;99.90;;;;;;5070700;28;20173;-72
2023/07/23 04:14:11;;;;;;;5.13;4.40;;;18.20;99.90;;;;;;5069243;28;20408;-72
2023/07/23 04:16:37;;;;;;;5.53;4.33;;;18.30;99.90;;;;;;5069502;28;20848;-72
2023/07/23 04:19:03;;;;;;;6.70;4.30;;;18.40;99.90;;;;;;5071188;28;20753;-72
2023/07/23 04:21:28;;;;;;;4.53;4.10;;;18.40;99.90;;;;;;5070889;28;20205;-72
2023/07/23 04:23:55;;;;;;;5.07;4.20;;;18.40;99.90;;;;;;5070431;28;20250;-72
2023/07/23 04:26:21;;;;;;;6.60;4.10;;;18.50;99.90;;;;;;5070328;28;20209;-73
2023/07/23 04:28:47;;;;;;;4.97;4.37;;;18.60;99.90;;;;;;5069642;28;20510;-72
2023/07/23 04:31:13;;;;;;;4.87;4.43;;;18.60;99.90;;;;;;5070896;28;20542;-73
2023/07/23 04:33:39;;;;;;;5.00;3.80;;;18.70;99.90;;;;;;5070404;28;20479;-73
2023/07/23 04:36:07;;;;;;;5.30;4.40;;;18.70;99.90;;;;;;5070212;28;20705;-73
2023/07/23 04:38:34;;;;;;;4.57;4.10;;;18.80;99.90;;;;;;5070684;28;20891;-72
2023/07/23 04:40:59;;;;;;;4.70;4.27;;;18.80;99.90;;;;;;5070553;28;20409;-73
2023/07/23 04:43:25;;;;;;;5.97;4.40;;;18.80;99.90;;;;;;5070170;28;20411;-73
2023/07/23 04:45:51;;;;;;;4.90;4.40;;;18.80;99.90;;;;;;5069894;28;20652;-73
2023/07/23 04:48:16;;;;;;;5.57;4.40;;;18.90;99.90;;;;;;5070112;28;20177;-72
2023/07/23 04:50:43;;;;;;;4.90;4.50;;;18.90;99.90;;;;;;5070467;28;20681;-73
2023/07/23 04:53:09;;;;;;;5.50;4.40;;;18.90;99.90;;;;;;5069961;28;20165;-73
2023/07/23 04:55:34;;;;;;;6.63;4.00;;;18.90;99.90;;;;;;5069990;28;20430;-72
2023/07/23 04:58:00;;;;;;;5.50;4.53;;;18.90;99.90;;;;;;5068708;28;20197;-73
2023/07/23 05:00:27;;;;;;;6.70;4.70;;;18.90;99.90;;;;;;5070336;28;20539;-72
2023/07/23 05:02:52;;;;;;;4.40;4.00;;;18.90;99.90;;;;;;5069749;28;20174;-72
2023/07/23 05:05:18;;;;;;;4.83;3.83;;;18.90;99.90;;;;;;5069477;28;20514;-72
2023/07/23 05:07:44;;;;;;;4.03;3.60;;;19.00;99.90;;;;;;5066070;28;20486;-71
2023/07/23 05:10:10;;;;;;;6.03;3.93;;;19.00;99.90;;;;;;5069986;28;20183;-71
2023/07/23 05:12:36;;;;;;;4.40;3.97;;;19.00;99.90;;;;;;5068034;28;20226;-72
2023/07/23 05:15:13;;;;;;;4.50;3.93;;;19.10;99.90;;;;;;5070082;28;20830;-72
2023/07/23 05:17:40;;;;;;;5.00;3.40;;;19.10;99.90;;;;;;5070134;28;20641;-72
2023/07/23 05:20:06;;;;;;;6.53;3.80;;;19.10;99.90;;;;;;5069719;28;20530;-71
2023/07/23 05:22:37;;;;;;;4.00;3.70;;;19.10;99.90;;;;;;5069244;28;20954;-71
2023/07/23 05:25:03;;;;;;;6.53;3.93;;;19.10;99.90;;;;;;5069640;28;20447;-72
2023/07/23 05:27:30;;;;;;;3.70;3.30;;;19.10;99.90;;;;;;5069313;28;20451;-71
2023/07/23 05:29:56;;;;;;;4.87;3.30;;;19.10;99.90;;;;;;5068581;28;20924;-72
2023/07/23 05:32:22;;;;;;;5.23;3.60;;;19.10;99.90;;;;;;5069199;28;20415;-72
2023/07/23 05:34:47;;;;;;;6.20;3.57;;;19.20;99.90;;;;;;5069583;28;20411;-72
2023/07/23 05:37:13;;;;;;;3.67;3.37;;;19.20;99.90;;;;;;5069707;28;20455;-71
2023/07/23 05:39:39;;;;;;;4.00;3.50;;;19.20;99.90;;;;;;5069386;28;20509;-72
2023/07/23 05:42:05;;;;;;;5.83;3.67;;;19.20;99.90;;;;;;5067967;28;20458;-72
2023/07/23 05:44:31;;;;;;;3.60;3.30;;;19.30;99.90;;;;;;5069315;28;20178;-72
2023/07/23 05:46:57;;;;;;;4.43;3.40;;;19.20;99.90;;;;;;5068986;28;20463;-72
2023/07/23 05:49:24;;;;;;;6.27;4.20;;;19.30;99.90;;;;;;5069121;28;20498;-72
2023/07/23 05:51:50;;;;;;;6.30;3.30;;;19.30;99.90;;;;;;5067652;28;20223;-72
2023/07/23 05:54:16;;;;;;;3.97;3.60;;;19.30;99.90;;;;;;5068814;28;20816;-72
2023/07/23 05:56:42;;;;;;;4.63;3.27;;;19.30;99.90;;;;;;5068722;28;20419;-72
2023/07/23 05:59:07;;;;;;;4.20;3.80;;;19.30;99.90;;;;;;5069331;28;20169;-72
2023/07/23 06:01:33;;;;;;;5.80;3.93;;;19.30;99.90;;;;;;5069136;28;20215;-72
2023/07/23 06:03:59;;;;;;;4.33;3.30;;;19.40;99.90;;;;;;5068453;28;20200;-72
2023/07/23 06:06:24;;;;;;;5.10;3.60;;;19.40;99.90;;;;;;5069173;28;20213;-72
2023/07/23 06:08:50;;;;;;;3.60;3.00;;;19.30;99.90;;;;;;5068652;28;20173;-72
2023/07/23 06:11:16;;;;;;;4.50;3.40;;;19.40;99.90;;;;;;5069555;28;20178;-72
2023/07/23 06:13:42;;;;;;;4.93;3.40;;;19.50;99.90;;;;;;5068069;28;20168;-72
2023/07/23 06:16:07;;;;;;;4.70;3.50;;;19.60;99.90;;;;;;5067366;28;20423;-71
2023/07/23 06:18:36;;;;;;;12.67;3.50;;;19.60;99.90;;;;;;5068872;28;20173;-72
2023/07/23 06:21:02;;;;;;;6.60;3.30;;;19.70;99.90;;;;;;5068888;28;20180;-72
2023/07/23 06:23:28;;;;;;;4.30;3.43;;;19.80;99.90;;;;;;5068213;28;20762;-72
2023/07/23 06:25:57;;;;;;;9.53;3.43;;;19.70;99.90;;;;;;5068001;28;20464;-72
2023/07/23 06:28:23;;;;;;;3.77;3.40;;;19.80;99.90;;;;;;5068797;28;20177;-72
2023/07/23 06:30:53;;;;;;;6.17;3.60;;;19.90;99.90;;;;;;5068294;28;20916;-73
2023/07/23 06:33:18;;;;;;;3.40;3.10;;;20.00;99.90;;;;;;5066647;28;20408;-72
2023/07/23 06:35:44;;;;;;;3.47;3.17;;;20.00;99.90;;;;;;5068446;28;20407;-72
2023/07/23 06:38:10;;;;;;;4.17;3.07;;;20.10;99.90;;;;;;5068347;28;20193;-72
2023/07/23 06:40:36;;;;;;;3.93;3.10;;;20.20;99.90;;;;;;5068458;28;20599;-72
2023/07/23 06:43:02;;;;;;;3.97;2.93;;;20.30;99.90;;;;;;5066354;28;20176;-72
2023/07/23 06:45:28;;;;;;;5.33;3.17;;;20.30;99.90;;;;;;5067901;28;20177;-72
2023/07/23 06:47:55;;;;;;;3.57;2.93;;;20.40;99.90;;;;;;5064018;28;20504;-72
2023/07/23 06:50:21;;;;;;;3.70;3.00;;;20.40;99.90;;;;;;5064909;28;20553;-72
2023/07/23 06:52:47;;;;;;;4.27;3.50;;;20.40;99.90;;;;;;5067118;28;20412;-72
2023/07/23 06:55:13;;;;;;;3.90;3.50;;;20.50;99.90;;;;;;5067478;28;20270;-72
2023/07/23 06:57:39;;;;;;;12.33;3.50;;;20.50;99.90;;;;;;5066722;28;20458;-72
2023/07/23 07:00:07;;;;;;;4.00;3.43;;;20.50;99.90;;;;;;5066391;28;20191;-72
2023/07/23 07:02:34;;;;;;;3.30;2.77;;;20.50;99.90;;;;;;5063707;28;20419;-73
2023/07/23 07:05:00;;;;;;;4.70;3.47;;;20.40;99.90;;;;;;5066056;28;21131;-73
2023/07/23 07:07:25;;;;;;;3.63;3.33;;;20.40;99.90;;;;;;5066644;28;20454;-72
2023/07/23 07:09:53;;;;;;;5.63;3.20;;;20.30;99.90;;;;;;5066796;28;20176;-72
2023/07/23 07:12:18;;;;;;;5.77;3.17;;;20.30;99.90;;;;;;5066621;28;20674;-72
2023/07/23 07:14:44;;;;;;;5.40;3.53;;;20.20;99.90;;;;;;5066798;28;20495;-72
2023/07/23 07:17:10;;;;;;;4.90;3.17;;;20.20;99.90;;;;;;5067126;28;20204;-72
2023/07/23 07:19:35;;;;;;;4.23;3.77;;;20.30;99.90;;;;;;5067932;28;20254;-72
2023/07/23 07:22:01;;;;;;;3.70;3.23;;;20.30;99.90;;;;;;5067565;28;20177;-72
2023/07/23 07:24:27;;;;;;;5.17;3.10;;;20.30;99.90;;;;;;5065916;28;20674;-72
2023/07/23 07:26:53;;;;;;;4.00;3.30;;;20.30;99.90;;;;;;5067494;28;20214;-72
2023/07/23 07:29:19;;;;;;;3.50;2.77;;;20.30;99.90;;;;;;5065715;28;20412;-72
2023/07/23 07:31:45;;;;;;;4.73;3.30;;;20.30;99.90;;;;;;5067825;28;20196;-72
2023/07/23 07:34:11;;;;;;;4.60;3.53;;;20.40;99.90;;;;;;5067167;28;20173;-72
2023/07/23 07:36:38;;;;;;;3.40;3.10;;;20.30;99.90;;;;;;5067495;28;20438;-72
2023/07/23 07:39:05;;;;;;;6.00;4.00;;;20.40;99.90;;;;;;5067915;28;20536;-72
2023/07/23 07:41:30;;;;;;;5.33;3.23;;;20.40;99.90;;;;;;5067562;28;20447;-72
2023/07/23 07:43:56;;;;;;;5.07;4.17;;;20.30;99.90;;;;;;5066850;28;20853;-72
2023/07/23 07:46:23;;;;;;;5.77;3.90;;;20.20;99.90;;;;;;5067377;28;20330;-72
2023/07/23 07:48:49;;;;;;;5.97;3.60;;;20.20;99.90;;;;;;5067478;28;20169;-72
2023/07/23 07:51:14;;;;;;;4.20;3.57;;;20.10;99.90;;;;;;5067932;28;20404;-72
2023/07/23 07:53:40;;;;;;;4.30;3.47;;;20.10;99.90;;;;;;5066919;28;20173;-72
2023/07/23 07:56:13;;;;;;;4.10;3.20;;;20.00;99.90;;;;;;5064926;28;20635;-73
2023/07/23 07:58:39;;;;;;;7.23;3.67;;;19.90;99.90;;;;;;5064113;28;20230;-73
2023/07/23 08:01:05;;;;;;;4.90;3.00;;;19.90;99.90;;;;;;5067614;28;20415;-73
2023/07/23 08:03:32;;;;;;;3.33;3.03;;;19.90;99.90;;;;;;5066842;28;20459;-73
2023/07/23 08:05:59;;;;;;;3.20;2.90;;;19.80;99.90;;;;;;5067196;28;20901;-72
2023/07/23 08:08:30;;;;;;;6.27;3.27;;;19.80;99.90;;;;;;5067219;28;20411;-72
2023/07/23 08:10:57;;;;;;;3.30;3.00;;;19.70;99.90;;;;;;5067639;28;20808;-73
2023/07/23 08:13:24;;;;;;;3.30;3.00;;;19.80;99.90;;;;;;5066986;28;20415;-72
2023/07/23 08:15:51;;;;;;;3.00;2.70;;;19.70;99.90;;;;;;5067121;28;20412;-73
2023/07/23 08:18:17;;;;;;;4.40;3.20;;;19.70;99.90;;;;;;5064797;28;20437;-72
2023/07/23 08:20:43;;;;;;;3.00;2.70;;;19.70;99.90;;;;;;5066973;28;20842;-73
2023/07/23 08:23:09;;;;;;;3.40;2.70;;;19.70;99.90;;;;;;5066882;28;20411;-72
2023/07/23 08:25:37;;;;;;;3.37;3.07;;;19.70;99.90;;;;;;5064691;28;20478;-72
2023/07/23 08:28:04;;;;;;;3.37;3.07;;;19.70;99.90;;;;;;5066509;28;20439;-73
2023/07/23 08:30:30;;;;;;;3.10;2.87;;;19.60;99.90;;;;;;5065733;28;20431;-73
2023/07/23 08:32:59;;;;;;;3.70;3.10;;;19.60;99.90;;;;;;5066423;28;20424;-73
2023/07/23 08:35:27;;;;;;;3.13;2.53;;;19.60;99.90;;;;;;5066270;28;20465;-72
2023/07/23 08:37:54;;;;;;;6.23;3.83;;;19.60;99.90;;;;;;5066587;28;20931;-73
2023/07/23 08:40:20;;;;;;;4.93;3.20;;;19.60;99.90;;;;;;5066810;28;20418;-73
2023/07/23 08:42:55;;;;;;;3.53;3.23;;;19.60;99.90;;;;;;5069805;28;20419;-73
2023/07/23 08:45:42;;;;;;;3.53;2.97;;;19.60;99.90;;;;;;5068313;28;20496;-73
2023/07/23 08:48:14;;;;;;;2.97;2.67;;;19.70;99.90;;;;;;5064139;28;20500;-72
2023/07/23 08:50:42;;;;;;;4.00;3.50;;;19.70;99.90;;;;;;5070222;28;20423;-73
2023/07/23 08:53:10;;;;;;;4.60;2.73;;;19.70;99.90;;;;;;5068804;28;20469;-73
2023/07/23 08:55:38;;;;;;;6.80;3.60;;;19.70;99.90;;;;;;5062660;28;20429;-73
2023/07/23 08:58:04;;;;;;;3.77;3.17;;;19.70;99.90;;;;;;5061741;28;20459;-73
2023/07/23 09:00:30;;;;;;;5.60;3.53;;;19.60;99.90;;;;;;5069831;28;20469;-73
2023/07/23 09:03:02;;;;;;;4.10;3.00;;;19.40;99.90;;;;;;5066647;28;20435;-73
2023/07/23 09:05:32;;;;;;;4.37;3.37;;;19.40;99.90;;;;;;5069164;28;20188;-73
2023/07/23 09:07:58;;;;;;;3.93;3.63;;;19.30;99.90;;;;;;5069373;28;20481;-73
2023/07/23 09:10:24;;;;;;;4.67;3.43;;;19.30;99.90;;;;;;5069169;28;20776;-73
2023/07/23 09:12:50;;;;;;;4.27;3.50;;;19.20;99.90;;;;;;5069076;28;20419;-73
2023/07/23 09:15:15;;;;;;;3.77;3.40;;;19.20;99.90;;;;;;5067048;28;20215;-72
2023/07/23 09:17:41;;;;;;;5.60;3.07;;;19.20;99.90;;;;;;5069866;28;20223;-72
2023/07/23 09:20:11;;;;;;;4.13;3.13;;;19.00;99.90;;;;;;5068965;28;20189;-72
2023/07/23 09:22:36;;;;;;;4.77;2.77;;;18.90;99.90;;;;;;5069308;28;20484;-72
2023/07/23 09:25:02;;;;;;;13.23;4.77;;;18.80;99.90;;;;;;5069447;28;20443;-72
2023/07/23 09:27:36;;;;;;;7.10;3.53;;;18.70;99.90;;;;;;5068910;28;20209;-72
2023/07/23 09:30:03;;;;;;;5.13;2.87;;;18.50;99.90;;;;;;5069653;28;20451;-72
2023/07/23 09:32:29;;;;;;;3.40;3.10;;;18.50;99.90;;;;;;5063203;28;20499;-72
2023/07/23 09:34:56;;;;;;;5.07;3.70;;;18.50;99.90;;;;;;5067325;28;20420;-72
2023/07/23 09:37:22;;;;;;;4.13;3.70;;;18.40;99.90;;;;;;5066576;28;20262;-72
2023/07/23 09:39:48;;;;;;;3.63;3.30;;;18.40;99.90;;;;;;5068628;28;20411;-72
2023/07/23 09:42:14;;;;;;;4.10;3.53;;;18.30;99.90;;;;;;5066728;28;20416;-72
2023/07/23 09:44:40;;;;;;;4.00;3.60;;;18.20;99.90;;;;;;5068599;28;20535;-72
2023/07/23 09:47:06;;;;;;;3.40;3.10;;;18.10;99.90;;;;;;5069070;28;20974;-72
2023/07/23 09:49:32;;;;;;;6.20;3.77;;;18.10;99.90;;;;;;5068745;28;20699;-72
2023/07/23 09:51:57;;;;;;;3.57;3.27;;;18.00;99.90;;;;;;5068412;28;20443;-70
2023/07/23 09:54:25;;;;;;;4.60;3.87;;;18.10;99.90;;;;;;5068750;28;20419;-70
2023/07/23 09:56:51;;;;;;;3.70;3.30;;;18.10;99.90;;;;;;5066457;28;20620;-70
2023/07/23 09:59:18;;;;;;;4.20;3.20;;;18.10;99.90;;;;;;5067956;28;20947;-70
2023/07/23 10:01:44;;;;;;;3.80;3.40;;;18.10;99.90;;;;;;5063185;28;20451;-70
2023/07/23 10:04:11;;;;;;;4.20;3.40;;;18.20;99.90;;;;;;5060275;28;20482;-70
2023/07/23 10:06:37;;;;;;;4.87;3.83;;;18.10;99.90;;;;;;5060558;28;20488;-72
2023/07/23 10:09:03;;;;;;;3.17;2.73;;;18.20;99.90;;;;;;5071527;28;20940;-72
2023/07/23 10:11:29;;;;;;;3.20;2.90;;;18.20;99.90;;;;;;5061388;28;20604;-72
2023/07/23 10:13:55;;;;;;;4.70;3.37;;;18.20;99.90;;;;;;5070711;28;20760;-72
2023/07/23 10:16:29;;;;;;;3.93;3.30;;;18.20;99.90;;;;;;5066790;28;20427;-72
2023/07/23 10:18:56;;;;;;;3.60;3.30;;;18.10;99.90;;;;;;5070406;28;20207;-72
2023/07/23 10:21:22;;;;;;;4.17;3.60;;;18.10;99.90;;;;;;5060876;28;20443;-72
2023/07/23 10:23:58;;;;;;;4.20;3.80;;;18.00;99.90;;;;;;5073086;28;20435;-72
2023/07/23 10:26:29;;;;;;;3.90;3.43;;;18.10;99.90;;;;;;5066747;28;20554;-72
2023/07/23 10:29:18;;;;;;;5.83;3.40;;;18.00;99.90;;;;;;5067914;28;20447;-72
2023/07/23 10:31:44;;;;;;;3.53;3.23;;;18.00;99.90;;;;;;5066306;28;20545;-72
2023/07/23 10:34:22;;;;;;;4.10;3.67;;;17.90;99.90;;;;;;5052719;28;20474;-70
2023/07/23 10:37:16;;;;;;;3.67;3.33;;;17.90;99.90;;;;;;5072022;28;20446;-71
2023/07/23 10:39:44;;;;;;;3.77;3.47;;;18.00;99.90;;;;;;5062586;28;21108;-71
2023/07/23 10:42:10;;;;;;;3.67;3.27;;;18.00;99.90;;;;;;5065926;28;20451;-71
2023/07/23 10:44:38;;;;;;;4.57;4.13;;;17.90;99.90;;;;;;5068424;28;20443;-71
2023/07/23 10:47:30;;;;;;;4.67;3.97;;;18.00;99.90;;;;;;5068812;28;20498;-71
2023/07/23 10:50:17;;;;;;;5.00;4.10;;;17.90;99.90;;;;;;5069156;28;20612;-73
2023/07/23 10:52:44;;;;;;;5.83;3.80;;;17.90;99.90;;;;;;5069754;28;20486;-71
2023/07/23 10:55:10;;;;;;;3.93;3.63;;;18.00;99.90;;;;;;5066739;28;20455;-71
2023/07/23 10:57:41;;;;;;;4.17;3.77;;;18.00;99.90;;;;;;5065914;28;20484;-71
2023/07/23 11:00:27;;;;;;;4.30;3.53;;;18.10;99.90;;;;;;5071567;28;20543;-71
2023/07/23 11:02:53;;;;;;;3.97;3.60;;;18.10;99.90;;;;;;5068689;28;20520;-70
2023/07/23 11:05:21;;;;;;;3.47;3.17;;;18.20;99.90;;;;;;5069460;28;20477;-72
2023/07/23 11:08:12;;;;;;;4.93;3.50;;;18.10;99.90;;;;;;5066417;28;20478;-71
2023/07/23 11:11:02;;;;;;;3.40;3.10;;;18.20;99.90;;;;;;5065063;28;20436;-71
2023/07/23 11:13:33;;;;;;;3.60;3.30;;;18.20;99.90;;;;;;5064558;28;20983;-71
2023/07/23 11:16:00;;;;;;;3.50;3.20;;;18.30;99.90;;;;;;5070474;28;20495;-71
2023/07/23 11:18:30;;;;;;;3.47;3.17;;;18.20;99.90;;;;;;5074096;28;20466;-71
2023/07/23 11:20:57;;;;;;;3.50;2.73;;;18.30;99.90;;;;;;5066734;28;20514;-71
2023/07/23 11:23:25;;;;;;;3.93;3.60;;;18.30;99.90;;;;;;5071000;28;21001;-71
2023/07/23 11:25:52;;;;;;;3.53;3.23;;;18.20;99.90;;;;;;5067083;28;20463;-71
2023/07/23 11:28:22;;;;;;;4.93;2.87;;;18.20;99.90;;;;;;5060381;28;20455;-71
2023/07/23 11:30:50;;;;;;;3.07;2.77;;;18.30;99.90;;;;;;5066052;28;20495;-71
2023/07/23 11:33:17;;;;;;;2.70;2.50;;;18.30;99.90;;;;;;5062943;28;20459;-72
2023/07/23 11:35:43;;;;;;;3.00;2.70;;;18.30;99.90;;;;;;5064490;28;20773;-72
2023/07/23 11:38:09;;;;;;;2.90;2.70;;;18.40;99.90;;;;;;5060575;28;20455;-72
2023/07/23 11:40:35;;;;;;;2.47;2.27;;;18.40;99.90;;;;;;5064799;28;20820;-72
2023/07/23 11:43:06;;;;;;;2.47;2.20;;;18.40;99.90;;;;;;5065840;28;20208;-72
2023/07/23 11:45:46;;;;;;;2.83;2.63;;;18.30;99.90;;;;;;5065075;28;20485;-72
2023/07/23 11:48:19;;;;;;;2.47;1.97;;;18.30;99.90;;;;;;5063510;28;20443;-72
2023/07/23 11:50:45;;;;;;;2.47;2.27;;;18.40;99.90;;;;;;5067201;28;20435;-72
2023/07/23 11:53:11;;;;;;;2.77;2.20;;;18.40;99.90;;;;;;5066913;28;20497;-72
2023/07/23 11:55:37;;;;;;;2.53;2.33;;;18.30;99.90;;;;;;5048230;28;20967;-72
2023/07/23 11:58:03;;;;;;;2.00;1.80;;;18.40;99.90;;;;;;5066916;28;20212;-72
2023/07/23 12:00:39;;;;;;;3.33;2.50;;;18.30;99.90;;;;;;5069902;28;20244;-72
2023/07/23 12:03:09;;;;;;;2.50;2.30;;;18.30;99.90;;;;;;5063475;28;20221;-72
2023/07/23 12:05:39;;;;;;;2.50;2.30;;;18.20;99.90;;;;;;5063184;28;20572;-72
2023/07/23 12:08:06;;;;;;;2.70;2.50;;;18.20;99.90;;;;;;5065103;28;20497;-72
2023/07/23 12:10:34;;;;;;;3.63;2.50;;;18.20;99.90;;;;;;5066666;28;20441;-71
2023/07/23 12:13:10;;;;;;;2.50;2.30;;;18.20;99.90;;;;;;5062738;28;21113;-72
2023/07/23 12:15:40;;;;;;;3.20;2.90;;;18.30;99.90;;;;;;5068713;28;20430;-72
2023/07/23 12:18:08;;;;;;;3.00;2.70;;;18.30;99.90;;;;;;5068051;28;20454;-72
2023/07/23 12:20:34;;;;;;;3.17;2.67;;;18.30;99.90;;;;;;5072233;28;20526;-72
2023/07/23 12:23:01;;;;;;;2.80;2.43;;;18.30;99.90;;;;;;5065551;28;20876;-72
2023/07/23 12:25:27;;;;;;;3.20;2.30;;;18.30;99.90;;;;;;5072615;28;20232;-71
2023/07/23 12:27:53;;;;;;;3.83;2.70;;;18.30;99.90;;;;;;5065415;28;20452;-71
2023/07/23 12:30:19;;;;;;;6.50;2.30;;;18.30;99.90;;;;;;5072253;28;20944;-71
2023/07/23 12:32:46;;;;;;;3.53;3.03;;;18.30;99.90;;;;;;5068142;28;20487;-71
2023/07/23 12:35:12;;;;;;;3.03;2.73;;;18.30;99.90;;;;;;5071387;28;20431;-71
2023/07/23 12:37:38;;;;;;;2.87;2.67;;;18.30;99.90;;;;;;5064023;28;21032;-71
2023/07/23 12:40:06;;;;;;;3.27;2.97;;;18.40;99.90;;;;;;5068364;28;20669;-71
2023/07/23 12:42:32;;;;;;;3.27;2.53;;;18.40;99.90;;;;;;5069405;28;20764;-71
2023/07/23 12:45:03;;;;;;;2.73;2.53;;;18.40;99.90;;;;;;5069975;28;20462;-71